createdAt,value
2023-02-11T00:03:43.928Z,69.96
2023-02-11T00:08:46.764Z,71.22
2023-02-11T00:13:49.529Z,70.75
2023-02-11T00:18:54.199Z,69.72
2023-02-11T00:23:59.984Z,71.88
2023-02-11T00:29:03.945Z,69.66
2023-02-11T00:34:07.168Z,71.15
2023-02-11T00:39:09.848Z,71.01
2023-02-11T00:44:12.108Z,74.00
2023-02-11T00:49:15.795Z,75.51
2023-02-11T00:54:18.101Z,74.71
2023-02-11T00:59:20.728Z,71.78
2023-02-11T01:04:23.201Z,73.57
2023-02-11T01:09:27.603Z,76.21
2023-02-11T01:14:29.956Z,75.88
2023-02-11T01:19:32.337Z,75.74
2023-02-11T01:24:34.737Z,77.97
2023-02-11T01:29:39.313Z,73.29
2023-02-11T01:34:41.678Z,73.57
2023-02-11T01:39:44.102Z,71.82
2023-02-11T01:44:52.665Z,71.61
2023-02-11T01:49:59.634Z,75.09
2023-02-11T01:55:28.684Z,71.00
2023-02-11T02:00:37.747Z,75.63
2023-02-11T02:05:56.063Z,73.96
2023-02-11T02:11:01.071Z,75.70
2023-02-11T02:16:09.814Z,77.05
2023-02-11T02:21:34.546Z,75.86
2023-02-11T02:26:58.899Z,72.16
2023-02-11T02:32:38.373Z,72.05
2023-02-11T02:37:42.075Z,71.37
2023-02-11T02:42:45.181Z,73.41
2023-02-11T02:47:47.494Z,72.42
2023-02-11T02:53:12.707Z,71.21
2023-02-11T02:58:50.157Z,73.10
2023-02-11T03:04:10.033Z,71.27
2023-02-11T03:09:26.548Z,72.73
2023-02-11T03:14:30.619Z,72.37
2023-02-11T03:19:39.363Z,72.63
2023-02-11T03:24:42.709Z,69.76
2023-02-11T03:30:01.095Z,73.33
2023-02-11T03:35:24.659Z,69.59
2023-02-11T03:40:32.942Z,70.75
2023-02-11T03:45:38.084Z,71.54
2023-02-11T03:50:42.063Z,69.68
2023-02-11T03:55:48.380Z,70.00
2023-02-11T04:00:50.902Z,73.72
2023-02-11T04:05:53.215Z,75.97
2023-02-11T04:10:55.467Z,77.40
2023-02-11T04:15:57.787Z,76.00
2023-02-11T04:20:59.965Z,76.80
2023-02-11T04:26:02.316Z,74.84
2023-02-11T04:31:04.947Z,72.25
2023-02-11T04:36:07.855Z,74.01
2023-02-11T04:41:10.085Z,72.53
2023-02-11T04:46:12.446Z,74.89
2023-02-11T04:51:15.367Z,77.16
2023-02-11T04:56:17.689Z,74.64
2023-02-11T05:01:20.035Z,75.50
2023-02-11T05:06:22.357Z,79.58
2023-02-11T05:11:26.275Z,80.61
2023-02-11T05:16:28.680Z,79.47
2023-02-11T05:21:31.129Z,79.99
2023-02-11T05:26:33.586Z,77.90
2023-02-11T05:31:36.003Z,76.51
2023-02-11T05:36:38.379Z,76.15
2023-02-11T05:41:40.771Z,73.27
2023-02-11T05:46:43.170Z,74.30
2023-02-11T05:51:45.530Z,73.60
2023-02-11T05:56:47.761Z,72.05
2023-02-11T06:01:50.037Z,73.84
2023-02-11T06:06:52.223Z,71.65
2023-02-11T06:11:54.648Z,74.27
2023-02-11T06:16:57.007Z,71.74
2023-02-11T06:22:00.456Z,75.53
2023-02-11T06:27:04.903Z,73.78
2023-02-11T06:32:10.107Z,76.05
2023-02-11T06:37:18.431Z,72.72
2023-02-11T06:42:20.763Z,70.75
2023-02-11T06:47:23.074Z,71.19
2023-02-11T06:52:25.346Z,74.79
2023-02-11T06:57:27.586Z,71.60
2023-02-11T07:02:29.864Z,72.64
2023-02-11T07:07:34.364Z,72.91
2023-02-11T07:12:36.742Z,74.76
2023-02-11T07:17:39.054Z,75.06
2023-02-11T07:22:41.297Z,75.04
2023-02-11T07:27:43.631Z,76.30
2023-02-11T07:32:45.881Z,75.93
2023-02-11T07:37:48.158Z,74.79
2023-02-11T07:42:50.434Z,74.07
2023-02-11T07:47:52.690Z,74.85
2023-02-11T07:52:54.947Z,74.16
2023-02-11T07:57:57.737Z,72.94
2023-02-11T08:03:00.225Z,75.44
2023-02-11T08:08:02.388Z,76.27
2023-02-11T08:13:04.639Z,76.76
2023-02-11T08:18:07.532Z,76.49
2023-02-11T08:23:09.800Z,76.06
2023-02-11T08:28:12.134Z,76.18
2023-02-11T08:33:14.381Z,74.87
2023-02-11T08:38:16.681Z,75.25
2023-02-11T08:43:18.807Z,75.07
2023-02-11T08:48:20.999Z,74.59
2023-02-11T08:53:23.593Z,74.24
2023-02-11T08:58:25.918Z,74.80
2023-02-11T09:03:28.350Z,76.49
2023-02-11T09:08:30.602Z,76.17
2023-02-11T09:13:34.058Z,74.88
2023-02-11T09:18:36.333Z,73.86
2023-02-11T09:23:38.671Z,74.23
2023-02-11T09:28:40.991Z,73.46
2023-02-11T09:33:49.178Z,74.24
2023-02-11T09:38:52.843Z,74.22
2023-02-11T09:44:05.400Z,74.43
2023-02-11T09:49:16.456Z,75.89
2023-02-11T09:54:37.084Z,73.87
2023-02-11T09:59:40.907Z,72.83
2023-02-11T10:05:28.378Z,73.84
2023-02-11T10:10:54.605Z,72.32
2023-02-11T10:16:27.820Z,69.46
2023-02-11T10:21:52.935Z,70.57
2023-02-11T10:26:55.366Z,69.70
2023-02-11T10:31:59.580Z,68.88
2023-02-11T10:37:01.987Z,69.46
2023-02-11T10:42:11.252Z,68.16
2023-02-11T10:47:23.039Z,67.82
2023-02-11T10:52:28.353Z,67.60
2023-02-11T10:57:40.079Z,64.88
2023-02-11T11:02:52.566Z,65.36
2023-02-11T11:08:02.769Z,64.95
2023-02-11T11:13:05.231Z,63.72
2023-02-11T11:18:22.475Z,63.07
2023-02-11T11:23:26.246Z,61.33
2023-02-11T11:28:31.983Z,62.64
2023-02-11T11:33:37.199Z,60.59
2023-02-11T11:39:08.787Z,59.64
2023-02-11T11:44:33.964Z,58.48
2023-02-11T11:49:43.438Z,57.62
2023-02-11T11:54:55.907Z,58.04
2023-02-11T11:59:59.327Z,56.85
2023-02-11T12:05:07.814Z,56.72
2023-02-11T12:10:38.200Z,57.32
2023-02-11T12:16:27.340Z,57.16
2023-02-11T12:22:03.706Z,55.71
2023-02-11T12:27:44.142Z,54.77
2023-02-11T12:33:17.235Z,54.06
2023-02-11T12:39:05.456Z,54.18
2023-02-11T12:44:35.617Z,56.15
2023-02-11T12:56:03.529Z,57.21
2023-02-11T13:01:16.064Z,56.25
2023-02-11T13:06:35.402Z,56.04
2023-02-11T13:11:52.533Z,54.68
2023-02-11T13:16:58.542Z,52.69
2023-02-11T13:22:20.614Z,52.50
2023-02-11T13:27:50.549Z,52.17
2023-02-11T13:32:55.834Z,53.98
2023-02-11T13:38:01.578Z,52.15
2023-02-11T13:43:07.808Z,51.12
2023-02-11T13:48:24.604Z,51.11
2023-02-11T13:53:28.233Z,51.98
2023-02-11T13:58:30.328Z,50.02
2023-02-11T14:03:57.507Z,50.33
2023-02-11T14:09:15.602Z,51.65
2023-02-11T14:14:23.830Z,50.17
2023-02-11T14:19:46.120Z,47.79
2023-02-11T14:25:02.485Z,49.40
2023-02-11T14:30:48.804Z,47.38
2023-02-11T14:36:22.946Z,48.69
2023-02-11T14:41:31.441Z,48.99
2023-02-11T14:46:34.616Z,48.97
2023-02-11T14:51:40.919Z,49.79
2023-02-11T14:56:44.791Z,49.93
2023-02-11T15:01:51.823Z,49.79
2023-02-11T15:06:55.345Z,49.32
2023-02-11T15:11:58.736Z,49.20
2023-02-11T15:17:07.910Z,48.35
2023-02-11T15:22:30.382Z,49.85
2023-02-11T15:27:48.276Z,50.66
2023-02-11T15:33:19.728Z,48.61
2023-02-11T15:38:21.908Z,50.21
2023-02-11T15:43:24.168Z,50.39
2023-02-11T15:48:53.595Z,51.50
2023-02-11T15:54:03.377Z,52.41
2023-02-11T15:59:20.420Z,54.24
2023-02-11T16:04:26.768Z,54.18
2023-02-11T16:09:36.086Z,54.45
2023-02-11T16:14:39.459Z,54.88
2023-02-11T16:19:46.777Z,55.72
2023-02-11T16:24:52.456Z,56.92
2023-02-11T16:29:55.036Z,56.60
2023-02-11T16:35:00.972Z,58.04
2023-02-11T16:40:03.166Z,58.38
2023-02-11T16:45:06.234Z,59.97
2023-02-11T16:50:12.362Z,60.41
2023-02-11T16:55:15.275Z,61.44
2023-02-11T17:00:18.290Z,62.77
2023-02-11T17:05:23.331Z,62.62
2023-02-11T17:10:25.936Z,62.14
2023-02-11T17:15:28.135Z,63.29
2023-02-11T17:20:30.373Z,61.74
2023-02-11T17:25:32.794Z,63.85
2023-02-11T17:30:35.703Z,64.52
2023-02-11T17:35:40.672Z,64.67
2023-02-11T17:40:42.991Z,65.17
2023-02-11T17:45:45.123Z,65.73
2023-02-11T17:50:47.363Z,64.94
2023-02-11T17:55:49.845Z,64.39
2023-02-11T18:00:52.368Z,67.35
2023-02-11T18:05:54.553Z,67.08
2023-02-11T18:10:56.875Z,67.17
2023-02-11T18:16:04.182Z,68.07
2023-02-11T18:21:09.634Z,68.15
2023-02-11T18:26:13.961Z,67.88
2023-02-11T18:31:17.215Z,69.56
2023-02-11T18:36:21.217Z,69.35
2023-02-11T18:41:23.519Z,68.76
2023-02-11T18:46:26.093Z,68.87
2023-02-11T18:51:31.676Z,69.25
2023-02-11T18:56:34.055Z,69.90
2023-02-11T19:01:36.591Z,69.39
2023-02-11T19:06:39.361Z,71.55
2023-02-11T19:11:47.374Z,70.39
2023-02-11T19:16:52.987Z,69.28
2023-02-11T19:21:55.898Z,70.00
2023-02-11T19:27:02.609Z,70.56
2023-02-11T19:32:06.434Z,72.07
2023-02-11T19:37:12.738Z,72.20
2023-02-11T19:42:15.209Z,72.17
2023-02-11T19:47:17.906Z,72.82
2023-02-11T19:52:20.170Z,73.05
2023-02-11T19:57:22.318Z,72.11
2023-02-11T20:02:24.996Z,73.41
2023-02-11T20:07:27.322Z,73.38
2023-02-11T20:12:29.653Z,70.18
2023-02-11T20:17:32.139Z,70.31
2023-02-11T20:22:34.572Z,68.23
2023-02-11T20:27:36.871Z,68.15
2023-02-11T20:32:39.039Z,69.31
2023-02-11T20:37:44.033Z,69.84
2023-02-11T20:42:46.381Z,69.24
2023-02-11T20:47:48.833Z,70.52
2023-02-11T20:52:51.138Z,70.15
2023-02-11T20:57:53.510Z,70.92
2023-02-11T21:02:55.855Z,70.93
2023-02-11T21:07:58.098Z,72.96
2023-02-11T21:13:00.517Z,69.68
2023-02-11T21:18:02.756Z,72.16
2023-02-11T21:23:04.893Z,74.28
2023-02-11T21:28:07.287Z,73.51
2023-02-11T21:33:09.674Z,71.11
2023-02-11T21:38:12.396Z,74.01
2023-02-11T21:43:14.570Z,73.90
2023-02-11T21:48:18.079Z,74.96
2023-02-11T21:53:20.362Z,75.29
2023-02-11T21:58:22.821Z,75.99
2023-02-11T22:03:25.257Z,75.97
2023-02-11T22:08:27.433Z,75.54
2023-02-11T22:13:29.628Z,75.07
2023-02-11T22:18:32.112Z,72.77
2023-02-11T22:23:35.305Z,72.67
2023-02-11T22:28:40.645Z,75.07
2023-02-11T22:33:44.153Z,75.09
2023-02-11T22:38:46.993Z,76.34
2023-02-11T22:43:49.801Z,76.54
2023-02-11T22:48:53.062Z,75.54
2023-02-11T22:54:01.457Z,75.53
2023-02-11T22:59:08.017Z,75.02
2023-02-11T23:04:14.791Z,76.76
2023-02-11T23:09:17.171Z,76.74
2023-02-11T23:14:19.420Z,76.83
2023-02-11T23:19:21.642Z,75.48
2023-02-11T23:24:23.811Z,76.89
2023-02-11T23:29:26.088Z,75.78
2023-02-11T23:34:28.433Z,76.88
2023-02-11T23:39:30.641Z,76.05
2023-02-11T23:44:32.989Z,75.71
2023-02-11T23:49:35.423Z,76.33
2023-02-11T23:54:37.760Z,75.66
2023-02-11T23:59:41.373Z,73.69
